sensor_id;sensor_type;location;lat;lon;timestamp;temperature;humidity
41220;DHT22;26951;47.338;9.196;2023-07-08T00:01:19;16.90;46.80
41220;DHT22;26951;47.338;9.196;2023-07-08T00:04:04;16.90;47.20
41220;DHT22;26951;47.338;9.196;2023-07-08T00:06:49;16.90;46.40
41220;DHT22;26951;47.338;9.196;2023-07-08T00:09:33;16.80;46.50
41220;DHT22;26951;47.338;9.196;2023-07-08T00:12:17;16.80;45.70
41220;DHT22;26951;47.338;9.196;2023-07-08T00:15:01;16.80;46.60
41220;DHT22;26951;47.338;9.196;2023-07-08T00:17:45;16.80;47.80
41220;DHT22;26951;47.338;9.196;2023-07-08T00:20:36;16.90;48.20
41220;DHT22;26951;47.338;9.196;2023-07-08T00:23:21;16.80;48.10
41220;DHT22;26951;47.338;9.196;2023-07-08T00:26:13;16.80;48.70
41220;DHT22;26951;47.338;9.196;2023-07-08T00:28:59;16.90;48.70
41220;DHT22;26951;47.338;9.196;2023-07-08T00:31:43;16.90;49.00
41220;DHT22;26951;47.338;9.196;2023-07-08T00:34:27;16.90;48.80
41220;DHT22;26951;47.338;9.196;2023-07-08T00:37:12;16.80;48.70
41220;DHT22;26951;47.338;9.196;2023-07-08T00:39:56;16.80;48.90
41220;DHT22;26951;47.338;9.196;2023-07-08T00:42:42;16.80;48.90
41220;DHT22;26951;47.338;9.196;2023-07-08T00:45:39;16.80;49.10
41220;DHT22;26951;47.338;9.196;2023-07-08T00:48:34;16.80;49.10
41220;DHT22;26951;47.338;9.196;2023-07-08T00:51:20;16.80;48.90
41220;DHT22;26951;47.338;9.196;2023-07-08T00:54:18;16.80;48.70
41220;DHT22;26951;47.338;9.196;2023-07-08T00:57:03;16.80;49.80
41220;DHT22;26951;47.338;9.196;2023-07-08T00:59:54;16.80;49.90
41220;DHT22;26951;47.338;9.196;2023-07-08T01:02:42;16.80;49.30
41220;DHT22;26951;47.338;9.196;2023-07-08T01:05:28;16.80;49.30
41220;DHT22;26951;47.338;9.196;2023-07-08T01:08:14;16.80;50.20
41220;DHT22;26951;47.338;9.196;2023-07-08T01:11:02;16.70;49.90
41220;DHT22;26951;47.338;9.196;2023-07-08T01:13:49;16.70;49.90
41220;DHT22;26951;47.338;9.196;2023-07-08T01:16:35;16.70;47.00
41220;DHT22;26951;47.338;9.196;2023-07-08T01:19:21;16.90;42.30
41220;DHT22;26951;47.338;9.196;2023-07-08T01:22:16;17.20;40.70
41220;DHT22;26951;47.338;9.196;2023-07-08T01:25:01;17.60;39.10
41220;DHT22;26951;47.338;9.196;2023-07-08T01:27:49;17.90;38.00
41220;DHT22;26951;47.338;9.196;2023-07-08T01:30:36;18.10;36.90
41220;DHT22;26951;47.338;9.196;2023-07-08T01:33:21;18.20;37.00
41220;DHT22;26951;47.338;9.196;2023-07-08T01:36:09;18.40;36.90
41220;DHT22;26951;47.338;9.196;2023-07-08T01:38:54;18.50;36.40
41220;DHT22;26951;47.338;9.196;2023-07-08T01:41:38;18.50;36.60
41220;DHT22;26951;47.338;9.196;2023-07-08T01:44:35;18.60;36.30
41220;DHT22;26951;47.338;9.196;2023-07-08T01:47:20;18.60;35.10
41220;DHT22;26951;47.338;9.196;2023-07-08T01:50:07;18.70;35.50
41220;DHT22;26951;47.338;9.196;2023-07-08T01:52:53;18.70;35.30
41220;DHT22;26951;47.338;9.196;2023-07-08T01:55:38;18.80;35.60
41220;DHT22;26951;47.338;9.196;2023-07-08T01:58:22;18.80;35.60
41220;DHT22;26951;47.338;9.196;2023-07-08T02:01:07;18.80;36.80
41220;DHT22;26951;47.338;9.196;2023-07-08T02:03:52;18.80;38.10
41220;DHT22;26951;47.338;9.196;2023-07-08T02:06:36;18.70;37.80
41220;DHT22;26951;47.338;9.196;2023-07-08T02:09:20;18.70;38.00
41220;DHT22;26951;47.338;9.196;2023-07-08T02:12:05;18.70;39.20
41220;DHT22;26951;47.338;9.196;2023-07-08T02:14:49;18.70;40.00
41220;DHT22;26951;47.338;9.196;2023-07-08T02:17:33;18.60;40.60
41220;DHT22;26951;47.338;9.196;2023-07-08T02:20:17;18.60;40.50
41220;DHT22;26951;47.338;9.196;2023-07-08T02:23:01;18.50;39.60
41220;DHT22;26951;47.338;9.196;2023-07-08T02:25:54;18.40;40.10
41220;DHT22;26951;47.338;9.196;2023-07-08T02:28:38;18.40;41.30
41220;DHT22;26951;47.338;9.196;2023-07-08T02:31:22;18.30;42.50
41220;DHT22;26951;47.338;9.196;2023-07-08T02:34:08;18.20;42.10
41220;DHT22;26951;47.338;9.196;2023-07-08T02:36:52;18.20;41.40
41220;DHT22;26951;47.338;9.196;2023-07-08T02:39:36;18.20;41.40
41220;DHT22;26951;47.338;9.196;2023-07-08T02:42:21;18.20;43.80
41220;DHT22;26951;47.338;9.196;2023-07-08T02:45:05;18.20;44.30
41220;DHT22;26951;47.338;9.196;2023-07-08T02:47:50;18.00;43.00
41220;DHT22;26951;47.338;9.196;2023-07-08T02:50:34;18.00;42.50
41220;DHT22;26951;47.338;9.196;2023-07-08T02:53:18;17.90;42.40
41220;DHT22;26951;47.338;9.196;2023-07-08T02:56:02;17.90;43.60
41220;DHT22;26951;47.338;9.196;2023-07-08T02:58:46;17.90;44.40
41220;DHT22;26951;47.338;9.196;2023-07-08T03:01:30;17.90;45.20
41220;DHT22;26951;47.338;9.196;2023-07-08T03:04:15;17.80;45.60
41220;DHT22;26951;47.338;9.196;2023-07-08T03:07:00;17.70;45.30
41220;DHT22;26951;47.338;9.196;2023-07-08T03:09:44;17.50;44.10
41220;DHT22;26951;47.338;9.196;2023-07-08T03:12:28;17.50;44.10
41220;DHT22;26951;47.338;9.196;2023-07-08T03:15:13;17.50;45.80
41220;DHT22;26951;47.338;9.196;2023-07-08T03:17:57;17.40;46.50
41220;DHT22;26951;47.338;9.196;2023-07-08T03:20:41;17.40;47.00
41220;DHT22;26951;47.338;9.196;2023-07-08T03:23:28;17.30;46.10
41220;DHT22;26951;47.338;9.196;2023-07-08T03:26:21;17.30;47.00
41220;DHT22;26951;47.338;9.196;2023-07-08T03:29:11;17.30;47.10
41220;DHT22;26951;47.338;9.196;2023-07-08T03:31:57;17.20;46.90
41220;DHT22;26951;47.338;9.196;2023-07-08T03:34:41;17.20;46.40
41220;DHT22;26951;47.338;9.196;2023-07-08T03:37:25;17.20;47.10
41220;DHT22;26951;47.338;9.196;2023-07-08T03:40:09;17.20;46.80
41220;DHT22;26951;47.338;9.196;2023-07-08T03:42:54;17.10;46.40
41220;DHT22;26951;47.338;9.196;2023-07-08T03:45:38;17.10;47.10
41220;DHT22;26951;47.338;9.196;2023-07-08T03:48:22;17.00;47.30
41220;DHT22;26951;47.338;9.196;2023-07-08T03:51:25;17.00;47.50
41220;DHT22;26951;47.338;9.196;2023-07-08T03:54:12;16.90;49.60
41220;DHT22;26951;47.338;9.196;2023-07-08T03:56:56;16.90;49.40
41220;DHT22;26951;47.338;9.196;2023-07-08T03:59:40;16.90;50.40
41220;DHT22;26951;47.338;9.196;2023-07-08T04:02:25;16.90;50.10
41220;DHT22;26951;47.338;9.196;2023-07-08T04:05:17;16.90;49.70
41220;DHT22;26951;47.338;9.196;2023-07-08T04:08:01;16.90;49.40
41220;DHT22;26951;47.338;9.196;2023-07-08T04:10:45;16.90;49.40
41220;DHT22;26951;47.338;9.196;2023-07-08T04:13:30;16.90;49.90
41220;DHT22;26951;47.338;9.196;2023-07-08T04:19:41;16.80;50.10
41220;DHT22;26951;47.338;9.196;2023-07-08T04:22:27;16.80;50.00
41220;DHT22;26951;47.338;9.196;2023-07-08T04:25:12;16.80;50.50
41220;DHT22;26951;47.338;9.196;2023-07-08T04:27:58;16.80;50.50
41220;DHT22;26951;47.338;9.196;2023-07-08T04:30:42;16.80;50.80
41220;DHT22;26951;47.338;9.196;2023-07-08T04:33:26;16.80;51.20
41220;DHT22;26951;47.338;9.196;2023-07-08T04:36:14;16.90;51.20
41220;DHT22;26951;47.338;9.196;2023-07-08T04:38:58;16.90;51.40
41220;DHT22;26951;47.338;9.196;2023-07-08T04:41:43;16.90;52.40
41220;DHT22;26951;47.338;9.196;2023-07-08T04:44:28;16.90;51.40
41220;DHT22;26951;47.338;9.196;2023-07-08T04:47:13;16.90;52.20
41220;DHT22;26951;47.338;9.196;2023-07-08T04:49:57;17.00;52.00
41220;DHT22;26951;47.338;9.196;2023-07-08T04:52:41;17.00;52.50
41220;DHT22;26951;47.338;9.196;2023-07-08T04:55:26;17.00;52.60
41220;DHT22;26951;47.338;9.196;2023-07-08T04:58:10;17.00;53.10
41220;DHT22;26951;47.338;9.196;2023-07-08T05:00:54;17.00;53.00
41220;DHT22;26951;47.338;9.196;2023-07-08T05:03:39;17.10;53.00
41220;DHT22;26951;47.338;9.196;2023-07-08T05:06:23;17.20;53.20
41220;DHT22;26951;47.338;9.196;2023-07-08T05:09:08;17.20;54.50
41220;DHT22;26951;47.338;9.196;2023-07-08T05:11:52;17.30;54.40
41220;DHT22;26951;47.338;9.196;2023-07-08T05:14:37;17.30;54.10
41220;DHT22;26951;47.338;9.196;2023-07-08T05:17:21;17.40;53.90
41220;DHT22;26951;47.338;9.196;2023-07-08T05:20:07;17.40;54.00
41220;DHT22;26951;47.338;9.196;2023-07-08T05:22:51;17.50;54.20
41220;DHT22;26951;47.338;9.196;2023-07-08T05:25:35;17.60;53.50
41220;DHT22;26951;47.338;9.196;2023-07-08T05:28:20;17.70;53.60
41220;DHT22;26951;47.338;9.196;2023-07-08T05:31:05;17.80;53.90
41220;DHT22;26951;47.338;9.196;2023-07-08T05:33:51;17.90;53.10
41220;DHT22;26951;47.338;9.196;2023-07-08T05:36:35;18.00;52.60
41220;DHT22;26951;47.338;9.196;2023-07-08T05:39:19;18.10;51.90
41220;DHT22;26951;47.338;9.196;2023-07-08T05:42:04;18.20;50.30
41220;DHT22;26951;47.338;9.196;2023-07-08T05:44:49;18.30;50.40
41220;DHT22;26951;47.338;9.196;2023-07-08T05:47:36;18.30;51.90
41220;DHT22;26951;47.338;9.196;2023-07-08T05:50:20;18.40;53.50
41220;DHT22;26951;47.338;9.196;2023-07-08T05:53:05;18.50;54.30
41220;DHT22;26951;47.338;9.196;2023-07-08T05:55:50;18.60;51.50
41220;DHT22;26951;47.338;9.196;2023-07-08T05:58:34;18.60;49.20
41220;DHT22;26951;47.338;9.196;2023-07-08T06:01:18;18.60;48.70
41220;DHT22;26951;47.338;9.196;2023-07-08T06:04:02;18.60;46.40
41220;DHT22;26951;47.338;9.196;2023-07-08T06:06:46;18.70;44.30
41220;DHT22;26951;47.338;9.196;2023-07-08T06:09:30;18.80;42.10
41220;DHT22;26951;47.338;9.196;2023-07-08T06:12:15;18.90;39.40
41220;DHT22;26951;47.338;9.196;2023-07-08T06:14:59;19.00;39.60
41220;DHT22;26951;47.338;9.196;2023-07-08T06:17:43;19.00;40.70
41220;DHT22;26951;47.338;9.196;2023-07-08T06:20:27;19.00;39.80
41220;DHT22;26951;47.338;9.196;2023-07-08T06:23:12;19.10;39.40
41220;DHT22;26951;47.338;9.196;2023-07-08T06:25:56;19.10;39.80
41220;DHT22;26951;47.338;9.196;2023-07-08T06:28:40;19.10;41.00
41220;DHT22;26951;47.338;9.196;2023-07-08T06:31:24;19.10;41.00
41220;DHT22;26951;47.338;9.196;2023-07-08T06:34:08;19.20;39.60
41220;DHT22;26951;47.338;9.196;2023-07-08T06:36:53;19.30;42.10
41220;DHT22;26951;47.338;9.196;2023-07-08T06:39:37;19.30;42.00
41220;DHT22;26951;47.338;9.196;2023-07-08T06:42:21;19.40;42.90
41220;DHT22;26951;47.338;9.196;2023-07-08T06:45:06;19.50;42.60
41220;DHT22;26951;47.338;9.196;2023-07-08T06:47:51;19.60;43.80
41220;DHT22;26951;47.338;9.196;2023-07-08T06:50:35;19.80;44.70
41220;DHT22;26951;47.338;9.196;2023-07-08T06:53:19;19.90;44.30
41220;DHT22;26951;47.338;9.196;2023-07-08T06:56:03;20.20;40.60
41220;DHT22;26951;47.338;9.196;2023-07-08T06:58:47;20.50;40.50
41220;DHT22;26951;47.338;9.196;2023-07-08T07:01:32;20.70;43.40
41220;DHT22;26951;47.338;9.196;2023-07-08T07:04:16;21.00;39.70
41220;DHT22;26951;47.338;9.196;2023-07-08T07:07:00;21.20;39.70
41220;DHT22;26951;47.338;9.196;2023-07-08T07:09:44;21.50;41.10
41220;DHT22;26951;47.338;9.196;2023-07-08T07:12:28;21.70;40.00
41220;DHT22;26951;47.338;9.196;2023-07-08T07:15:12;21.80;38.30
41220;DHT22;26951;47.338;9.196;2023-07-08T07:17:57;21.90;37.20
41220;DHT22;26951;47.338;9.196;2023-07-08T07:20:52;22.00;37.50
41220;DHT22;26951;47.338;9.196;2023-07-08T07:23:37;22.00;37.50
41220;DHT22;26951;47.338;9.196;2023-07-08T07:26:21;22.10;36.90
41220;DHT22;26951;47.338;9.196;2023-07-08T07:29:05;22.10;36.50
41220;DHT22;26951;47.338;9.196;2023-07-08T07:31:50;22.20;38.10
41220;DHT22;26951;47.338;9.196;2023-07-08T07:34:35;22.30;36.20
41220;DHT22;26951;47.338;9.196;2023-07-08T07:37:21;22.30;35.90
41220;DHT22;26951;47.338;9.196;2023-07-08T07:40:07;22.30;34.70
41220;DHT22;26951;47.338;9.196;2023-07-08T07:42:56;22.30;34.90
41220;DHT22;26951;47.338;9.196;2023-07-08T07:45:40;22.30;37.10
41220;DHT22;26951;47.338;9.196;2023-07-08T07:48:24;22.30;35.10
41220;DHT22;26951;47.338;9.196;2023-07-08T07:51:08;22.30;36.40
41220;DHT22;26951;47.338;9.196;2023-07-08T07:53:54;22.20;37.90
41220;DHT22;26951;47.338;9.196;2023-07-08T07:56:38;22.20;37.50
41220;DHT22;26951;47.338;9.196;2023-07-08T07:59:22;22.20;38.60
41220;DHT22;26951;47.338;9.196;2023-07-08T08:02:07;22.30;37.50
41220;DHT22;26951;47.338;9.196;2023-07-08T08:04:52;22.20;37.40
41220;DHT22;26951;47.338;9.196;2023-07-08T08:07:36;22.20;37.90
41220;DHT22;26951;47.338;9.196;2023-07-08T08:10:20;22.30;38.80
41220;DHT22;26951;47.338;9.196;2023-07-08T08:13:04;22.40;37.30
41220;DHT22;26951;47.338;9.196;2023-07-08T08:15:49;22.50;38.60
41220;DHT22;26951;47.338;9.196;2023-07-08T08:18:39;22.70;37.40
41220;DHT22;26951;47.338;9.196;2023-07-08T08:21:23;22.90;37.20
41220;DHT22;26951;47.338;9.196;2023-07-08T08:24:07;23.30;39.20
41220;DHT22;26951;47.338;9.196;2023-07-08T08:26:52;23.70;38.70
41220;DHT22;26951;47.338;9.196;2023-07-08T08:29:36;24.20;38.50
41220;DHT22;26951;47.338;9.196;2023-07-08T08:32:20;24.60;32.40
41220;DHT22;26951;47.338;9.196;2023-07-08T08:35:04;24.90;30.10
41220;DHT22;26951;47.338;9.196;2023-07-08T08:37:49;25.20;30.40
41220;DHT22;26951;47.338;9.196;2023-07-08T08:40:33;25.50;33.10
41220;DHT22;26951;47.338;9.196;2023-07-08T08:43:22;25.80;30.70
41220;DHT22;26951;47.338;9.196;2023-07-08T08:46:45;26.10;29.90
41220;DHT22;26951;47.338;9.196;2023-07-08T08:49:46;26.20;29.70
41220;DHT22;26951;47.338;9.196;2023-07-08T08:52:33;26.20;27.70
41220;DHT22;26951;47.338;9.196;2023-07-08T08:55:17;26.30;27.80
41220;DHT22;26951;47.338;9.196;2023-07-08T09:01:08;26.20;28.10
41220;DHT22;26951;47.338;9.196;2023-07-08T09:04:03;26.20;27.50
41220;DHT22;26951;47.338;9.196;2023-07-08T09:06:50;26.30;28.70
41220;DHT22;26951;47.338;9.196;2023-07-08T09:09:51;26.40;31.20
41220;DHT22;26951;47.338;9.196;2023-07-08T09:12:38;26.50;33.80
41220;DHT22;26951;47.338;9.196;2023-07-08T09:15:25;26.60;33.30
41220;DHT22;26951;47.338;9.196;2023-07-08T09:18:20;26.80;30.90
41220;DHT22;26951;47.338;9.196;2023-07-08T09:21:18;27.00;28.30
41220;DHT22;26951;47.338;9.196;2023-07-08T09:24:10;27.10;28.90
41220;DHT22;26951;47.338;9.196;2023-07-08T09:27:00;27.30;28.10
41220;DHT22;26951;47.338;9.196;2023-07-08T09:29:45;27.30;28.20
41220;DHT22;26951;47.338;9.196;2023-07-08T09:32:29;27.30;25.90
41220;DHT22;26951;47.338;9.196;2023-07-08T09:35:24;27.20;27.60
41220;DHT22;26951;47.338;9.196;2023-07-08T09:38:14;27.10;26.60
41220;DHT22;26951;47.338;9.196;2023-07-08T09:40:59;27.10;27.10
41220;DHT22;26951;47.338;9.196;2023-07-08T09:43:43;27.00;26.90
41220;DHT22;26951;47.338;9.196;2023-07-08T09:46:27;27.00;27.90
41220;DHT22;26951;47.338;9.196;2023-07-08T09:52:04;26.90;27.20
41220;DHT22;26951;47.338;9.196;2023-07-08T09:54:49;26.80;28.30
41220;DHT22;26951;47.338;9.196;2023-07-08T09:57:33;26.80;28.10
41220;DHT22;26951;47.338;9.196;2023-07-08T10:00:27;26.80;27.50
41220;DHT22;26951;47.338;9.196;2023-07-08T10:03:22;26.80;27.60
41220;DHT22;26951;47.338;9.196;2023-07-08T10:06:17;26.80;27.80
41220;DHT22;26951;47.338;9.196;2023-07-08T10:09:04;26.80;26.70
41220;DHT22;26951;47.338;9.196;2023-07-08T10:11:53;26.70;27.50
41220;DHT22;26951;47.338;9.196;2023-07-08T10:14:46;26.60;29.00
41220;DHT22;26951;47.338;9.196;2023-07-08T10:17:32;26.60;28.20
41220;DHT22;26951;47.338;9.196;2023-07-08T10:20:18;26.40;29.30
41220;DHT22;26951;47.338;9.196;2023-07-08T10:23:16;26.30;29.60
41220;DHT22;26951;47.338;9.196;2023-07-08T10:26:27;26.20;30.60
41220;DHT22;26951;47.338;9.196;2023-07-08T10:29:52;26.30;31.00
41220;DHT22;26951;47.338;9.196;2023-07-08T10:35:34;26.70;33.30
41220;DHT22;26951;47.338;9.196;2023-07-08T10:41:42;27.20;29.10
41220;DHT22;26951;47.338;9.196;2023-07-08T10:48:03;27.80;33.10
41220;DHT22;26951;47.338;9.196;2023-07-08T11:08:47;28.80;30.60
41220;DHT22;26951;47.338;9.196;2023-07-08T11:11:53;29.00;30.30
41220;DHT22;26951;47.338;9.196;2023-07-08T11:14:54;29.00;27.70
41220;DHT22;26951;47.338;9.196;2023-07-08T11:18:07;29.00;27.30
41220;DHT22;26951;47.338;9.196;2023-07-08T11:20:58;29.00;27.70
41220;DHT22;26951;47.338;9.196;2023-07-08T11:24:33;29.10;28.80
41220;DHT22;26951;47.338;9.196;2023-07-08T11:27:08;29.20;28.80
41220;DHT22;26951;47.338;9.196;2023-07-08T11:30:02;29.30;28.80
41220;DHT22;26951;47.338;9.196;2023-07-08T11:32:54;29.20;27.30
41220;DHT22;26951;47.338;9.196;2023-07-08T11:35:47;29.10;29.40
41220;DHT22;26951;47.338;9.196;2023-07-08T11:38:33;29.10;30.70
41220;DHT22;26951;47.338;9.196;2023-07-08T11:41:20;29.30;32.40
41220;DHT22;26951;47.338;9.196;2023-07-08T11:44:06;29.40;29.50
41220;DHT22;26951;47.338;9.196;2023-07-08T11:46:55;29.50;27.30
41220;DHT22;26951;47.338;9.196;2023-07-08T11:49:40;29.50;26.30
41220;DHT22;26951;47.338;9.196;2023-07-08T11:52:24;29.40;27.60
41220;DHT22;26951;47.338;9.196;2023-07-08T11:55:24;29.40;25.00
41220;DHT22;26951;47.338;9.196;2023-07-08T11:58:25;29.20;24.20
41220;DHT22;26951;47.338;9.196;2023-07-08T12:07:02;29.20;26.30
41220;DHT22;26951;47.338;9.196;2023-07-08T12:09:59;29.20;26.10
41220;DHT22;26951;47.338;9.196;2023-07-08T12:12:44;29.20;26.30
41220;DHT22;26951;47.338;9.196;2023-07-08T12:15:31;29.30;27.80
41220;DHT22;26951;47.338;9.196;2023-07-08T12:18:31;29.50;28.10
41220;DHT22;26951;47.338;9.196;2023-07-08T12:21:17;29.50;26.60
41220;DHT22;26951;47.338;9.196;2023-07-08T12:24:05;29.40;25.70
41220;DHT22;26951;47.338;9.196;2023-07-08T12:26:50;29.30;26.90
41220;DHT22;26951;47.338;9.196;2023-07-08T12:29:34;29.30;26.40
41220;DHT22;26951;47.338;9.196;2023-07-08T12:32:19;29.30;27.10
41220;DHT22;26951;47.338;9.196;2023-07-08T12:35:23;29.40;27.50
41220;DHT22;26951;47.338;9.196;2023-07-08T12:41:09;29.50;25.20
41220;DHT22;26951;47.338;9.196;2023-07-08T12:43:55;29.20;23.60
41220;DHT22;26951;47.338;9.196;2023-07-08T12:46:39;29.20;25.80
41220;DHT22;26951;47.338;9.196;2023-07-08T12:49:23;29.20;28.10
41220;DHT22;26951;47.338;9.196;2023-07-08T12:52:22;29.30;26.80
41220;DHT22;26951;47.338;9.196;2023-07-08T12:55:11;29.40;29.30
41220;DHT22;26951;47.338;9.196;2023-07-08T12:57:55;29.70;30.10
41220;DHT22;26951;47.338;9.196;2023-07-08T13:00:41;29.80;30.20
41220;DHT22;26951;47.338;9.196;2023-07-08T13:03:39;29.80;29.70
41220;DHT22;26951;47.338;9.196;2023-07-08T13:06:28;29.90;29.20
41220;DHT22;26951;47.338;9.196;2023-07-08T13:09:52;30.10;28.80
41220;DHT22;26951;47.338;9.196;2023-07-08T13:12:39;30.30;30.60
41220;DHT22;26951;47.338;9.196;2023-07-08T13:15:31;30.30;29.70
41220;DHT22;26951;47.338;9.196;2023-07-08T13:21:13;30.20;30.60
41220;DHT22;26951;47.338;9.196;2023-07-08T13:23:58;30.20;29.40
41220;DHT22;26951;47.338;9.196;2023-07-08T13:26:45;30.30;29.50
41220;DHT22;26951;47.338;9.196;2023-07-08T13:29:34;30.40;31.00
41220;DHT22;26951;47.338;9.196;2023-07-08T13:32:19;30.40;30.40
41220;DHT22;26951;47.338;9.196;2023-07-08T13:35:03;30.30;29.30
41220;DHT22;26951;47.338;9.196;2023-07-08T13:37:48;30.30;30.00
41220;DHT22;26951;47.338;9.196;2023-07-08T13:40:46;30.30;30.70
41220;DHT22;26951;47.338;9.196;2023-07-08T13:43:36;30.30;29.70
41220;DHT22;26951;47.338;9.196;2023-07-08T13:46:44;30.20;28.70
41220;DHT22;26951;47.338;9.196;2023-07-08T13:49:40;30.20;28.40
41220;DHT22;26951;47.338;9.196;2023-07-08T13:52:27;30.10;29.40
41220;DHT22;26951;47.338;9.196;2023-07-08T13:55:18;30.10;31.40
41220;DHT22;26951;47.338;9.196;2023-07-08T13:58:02;29.90;33.60
41220;DHT22;26951;47.338;9.196;2023-07-08T14:00:47;29.80;33.80
41220;DHT22;26951;47.338;9.196;2023-07-08T14:03:31;29.80;32.30
41220;DHT22;26951;47.338;9.196;2023-07-08T14:06:21;29.80;33.20
41220;DHT22;26951;47.338;9.196;2023-07-08T14:11:55;29.90;32.80
41220;DHT22;26951;47.338;9.196;2023-07-08T14:14:40;30.00;31.80
41220;DHT22;26951;47.338;9.196;2023-07-08T14:17:25;30.10;31.90
41220;DHT22;26951;47.338;9.196;2023-07-08T14:20:12;30.30;31.60
41220;DHT22;26951;47.338;9.196;2023-07-08T14:22:56;30.20;30.10
41220;DHT22;26951;47.338;9.196;2023-07-08T14:25:40;30.30;30.90
41220;DHT22;26951;47.338;9.196;2023-07-08T14:28:24;30.30;30.30
41220;DHT22;26951;47.338;9.196;2023-07-08T14:31:12;30.20;30.50
41220;DHT22;26951;47.338;9.196;2023-07-08T14:34:06;30.00;30.30
41220;DHT22;26951;47.338;9.196;2023-07-08T14:36:51;29.90;30.70
41220;DHT22;26951;47.338;9.196;2023-07-08T14:39:35;29.80;32.00
41220;DHT22;26951;47.338;9.196;2023-07-08T14:42:20;29.80;32.90
41220;DHT22;26951;47.338;9.196;2023-07-08T14:45:08;29.60;31.10
41220;DHT22;26951;47.338;9.196;2023-07-08T14:47:52;29.50;31.00
41220;DHT22;26951;47.338;9.196;2023-07-08T14:50:36;29.60;32.60
41220;DHT22;26951;47.338;9.196;2023-07-08T14:53:20;29.80;32.40
41220;DHT22;26951;47.338;9.196;2023-07-08T14:56:14;29.80;30.90
41220;DHT22;26951;47.338;9.196;2023-07-08T14:58:59;29.80;29.80
41220;DHT22;26951;47.338;9.196;2023-07-08T15:01:44;29.80;31.10
41220;DHT22;26951;47.338;9.196;2023-07-08T15:04:29;29.90;32.40
41220;DHT22;26951;47.338;9.196;2023-07-08T15:07:13;29.90;30.80
41220;DHT22;26951;47.338;9.196;2023-07-08T15:09:57;30.00;31.50
41220;DHT22;26951;47.338;9.196;2023-07-08T15:12:41;30.00;31.30
41220;DHT22;26951;47.338;9.196;2023-07-08T15:15:31;30.00;30.90
41220;DHT22;26951;47.338;9.196;2023-07-08T15:18:18;30.00;30.40
41220;DHT22;26951;47.338;9.196;2023-07-08T15:21:03;30.00;29.70
41220;DHT22;26951;47.338;9.196;2023-07-08T15:23:48;30.00;29.90
41220;DHT22;26951;47.338;9.196;2023-07-08T15:26:32;30.00;29.10
41220;DHT22;26951;47.338;9.196;2023-07-08T15:29:20;29.90;29.40
41220;DHT22;26951;47.338;9.196;2023-07-08T15:32:12;29.90;31.50
41220;DHT22;26951;47.338;9.196;2023-07-08T15:34:57;29.90;30.70
41220;DHT22;26951;47.338;9.196;2023-07-08T15:37:42;30.00;30.00
41220;DHT22;26951;47.338;9.196;2023-07-08T15:40:30;30.00;29.60
41220;DHT22;26951;47.338;9.196;2023-07-08T15:43:16;29.90;29.00
41220;DHT22;26951;47.338;9.196;2023-07-08T15:46:01;29.80;29.60
41220;DHT22;26951;47.338;9.196;2023-07-08T15:48:46;29.80;29.60
41220;DHT22;26951;47.338;9.196;2023-07-08T15:51:31;29.70;30.50
41220;DHT22;26951;47.338;9.196;2023-07-08T15:54:16;29.40;30.60
41220;DHT22;26951;47.338;9.196;2023-07-08T15:57:00;29.40;31.50
41220;DHT22;26951;47.338;9.196;2023-07-08T15:59:48;29.40;29.80
41220;DHT22;26951;47.338;9.196;2023-07-08T16:02:32;29.40;29.80
41220;DHT22;26951;47.338;9.196;2023-07-08T16:05:19;29.30;30.70
41220;DHT22;26951;47.338;9.196;2023-07-08T16:08:04;29.20;31.40
41220;DHT22;26951;47.338;9.196;2023-07-08T16:10:54;29.20;31.10
41220;DHT22;26951;47.338;9.196;2023-07-08T16:13:40;29.10;31.10
41220;DHT22;26951;47.338;9.196;2023-07-08T16:16:24;29.10;30.00
41220;DHT22;26951;47.338;9.196;2023-07-08T16:19:10;29.10;29.20
41220;DHT22;26951;47.338;9.196;2023-07-08T16:21:55;29.00;30.60
41220;DHT22;26951;47.338;9.196;2023-07-08T16:24:39;28.90;30.70
41220;DHT22;26951;47.338;9.196;2023-07-08T16:27:23;28.80;31.40
41220;DHT22;26951;47.338;9.196;2023-07-08T16:30:13;28.80;31.10
41220;DHT22;26951;47.338;9.196;2023-07-08T16:32:58;28.70;30.50
41220;DHT22;26951;47.338;9.196;2023-07-08T16:35:42;28.60;30.60
41220;DHT22;26951;47.338;9.196;2023-07-08T16:38:26;28.60;31.00
41220;DHT22;26951;47.338;9.196;2023-07-08T16:41:18;28.40;29.90
41220;DHT22;26951;47.338;9.196;2023-07-08T16:44:13;28.30;30.00
41220;DHT22;26951;47.338;9.196;2023-07-08T16:46:57;28.20;30.10
41220;DHT22;26951;47.338;9.196;2023-07-08T16:49:41;28.00;30.40
41220;DHT22;26951;47.338;9.196;2023-07-08T16:52:26;27.80;30.60
41220;DHT22;26951;47.338;9.196;2023-07-08T16:55:18;27.60;31.70
41220;DHT22;26951;47.338;9.196;2023-07-08T16:58:03;27.50;32.60
41220;DHT22;26951;47.338;9.196;2023-07-08T17:00:47;27.40;32.50
41220;DHT22;26951;47.338;9.196;2023-07-08T17:03:33;27.40;31.90
41220;DHT22;26951;47.338;9.196;2023-07-08T17:06:18;27.40;31.90
41220;DHT22;26951;47.338;9.196;2023-07-08T17:09:02;27.30;31.70
41220;DHT22;26951;47.338;9.196;2023-07-08T17:11:48;27.30;32.10
41220;DHT22;26951;47.338;9.196;2023-07-08T17:14:33;27.20;32.20
41220;DHT22;26951;47.338;9.196;2023-07-08T17:17:17;27.10;31.50
41220;DHT22;26951;47.338;9.196;2023-07-08T17:20:18;27.00;30.90
41220;DHT22;26951;47.338;9.196;2023-07-08T17:23:11;26.90;31.10
41220;DHT22;26951;47.338;9.196;2023-07-08T17:25:56;26.70;30.50
41220;DHT22;26951;47.338;9.196;2023-07-08T17:28:40;26.70;30.90
41220;DHT22;26951;47.338;9.196;2023-07-08T17:31:24;26.60;31.50
41220;DHT22;26951;47.338;9.196;2023-07-08T17:34:19;26.40;32.10
41220;DHT22;26951;47.338;9.196;2023-07-08T17:37:05;26.30;32.00
41220;DHT22;26951;47.338;9.196;2023-07-08T17:39:49;26.20;32.90
41220;DHT22;26951;47.338;9.196;2023-07-08T17:42:33;26.10;32.90
41220;DHT22;26951;47.338;9.196;2023-07-08T17:45:20;26.00;32.90
41220;DHT22;26951;47.338;9.196;2023-07-08T17:48:05;25.90;32.60
41220;DHT22;26951;47.338;9.196;2023-07-08T17:50:49;25.90;32.60
41220;DHT22;26951;47.338;9.196;2023-07-08T17:53:33;25.80;34.50
41220;DHT22;26951;47.338;9.196;2023-07-08T17:56:41;25.80;36.30
41220;DHT22;26951;47.338;9.196;2023-07-08T17:59:23;25.70;36.70
41220;DHT22;26951;47.338;9.196;2023-07-08T18:02:15;25.60;37.30
41220;DHT22;26951;47.338;9.196;2023-07-08T18:04:59;25.50;38.60
41220;DHT22;26951;47.338;9.196;2023-07-08T18:07:44;25.40;38.60
41220;DHT22;26951;47.338;9.196;2023-07-08T18:10:30;25.30;37.30
41220;DHT22;26951;47.338;9.196;2023-07-08T18:13:20;25.20;37.40
41220;DHT22;26951;47.338;9.196;2023-07-08T18:16:13;24.90;36.80
41220;DHT22;26951;47.338;9.196;2023-07-08T18:18:57;24.70;37.20
41220;DHT22;26951;47.338;9.196;2023-07-08T18:21:42;24.60;38.20
41220;DHT22;26951;47.338;9.196;2023-07-08T18:24:27;24.60;38.70
41220;DHT22;26951;47.338;9.196;2023-07-08T18:27:13;24.50;40.00